Time;durP1;ratioP1;P1;durP2;ratioP2;P2;SDS_P1;SDS_P2;PMS_P1;PMS_P2;Temp;Humidity;BMP_temperature;BMP_pressure;BME280_temperature;BME280_humidity;BME280_pressure;Samples;Min_cycle;Max_cycle;Signal;HPM_P1;HPM_P2
2024/04/05 00:02:16;;;;;;;;;;;;;;;8.79;100.00;98209.19;5033255;28;19909;-75
2024/04/05 00:04:41;;;;;;;;;;;;;;;8.77;100.00;98200.56;5034455;28;19908;-76
2024/04/05 00:07:07;;;;;;;;;;;;;;;8.87;100.00;98208.06;5033811;28;20006;-75
2024/04/05 00:09:32;;;;;;;;;;;;;;;8.97;100.00;98200.31;5033703;28;19943;-75
2024/04/05 00:11:58;;;;;;;;;;;;;;;9.01;100.00;98204.16;5033707;28;19909;-74
2024/04/05 00:14:23;;;;;;;;;;;;;;;9.16;100.00;98203.75;5049586;28;19996;-75
2024/04/05 00:16:49;;;;;;;;;;;;;;;9.34;100.00;98196.66;5033591;28;19913;-74
2024/04/05 00:19:15;;;;;;;;;;;;;;;9.50;100.00;98200.53;5050247;28;19909;-76
2024/04/05 00:21:43;;;;;;;;;;;;;;;9.62;100.00;98196.81;5049866;28;19916;-76
2024/04/05 00:24:08;;;;;;;;;;;;;;;9.72;100.00;98203.47;5033781;28;20004;-76
2024/04/05 00:26:34;;;;;;;;;;;;;;;9.75;100.00;98195.75;5050174;28;20310;-76
2024/04/05 00:28:59;;;;;;;;;;;;;;;9.79;100.00;98199.63;5033423;28;19940;-75
2024/04/05 00:31:24;;;;;;;;;;;;;;;9.83;100.00;98191.91;5033461;28;19909;-76
2024/04/05 00:33:52;;;;;;;;;;;;;;;9.74;100.00;98186.09;5033370;28;20344;-76
2024/04/05 00:36:19;;;;;;;;;;;;;;;9.55;100.00;98188.06;5049598;28;19940;-76
2024/04/05 00:38:44;;;;;;;;;;;;;;;9.42;100.00;98194.47;5033136;28;19963;-74
2024/04/05 00:41:10;;;;;;;;;;;;;;;9.32;100.00;98188.03;5033073;28;19913;-76
2024/04/05 00:43:35;;;;;;;;;;;;;;;9.44;100.00;98191.53;5033253;28;19909;-76
2024/04/05 00:46:02;;;;;;;;;;;;;;;9.53;100.00;98184.81;5033175;28;20267;-76
2024/04/05 00:48:27;;;;;;;;;;;;;;;9.54;100.00;98182.94;5065749;28;19956;-76
2024/04/05 00:50:53;;;;;;;;;;;;;;;9.44;100.00;98178.94;5049645;28;20295;-76
2024/04/05 00:53:19;;;;;;;;;;;;;;;9.38;100.00;98177.19;5033148;28;19909;-76
2024/04/05 00:55:45;;;;;;;;;;;;;;;9.40;100.00;98180.47;5032914;28;19913;-76
2024/04/05 00:58:10;;;;;;;;;;;;;;;9.48;100.00;98168.59;5066204;28;19931;-76
2024/04/05 01:00:36;;;;;;;;;;;;;;;9.56;100.00;98170.91;5032903;28;19916;-75
2024/04/05 01:03:02;;;;;;;;;;;;;;;9.57;100.00;98169.84;5049586;28;19924;-76
2024/04/05 01:05:27;;;;;;;;;;;;;;;9.54;100.00;98173.00;5032964;28;20292;-75
2024/04/05 01:07:53;;;;;;;;;;;;;;;9.51;100.00;98165.44;5033016;28;20363;-76
2024/04/05 01:10:21;;;;;;;;;;;;;;;9.50;100.00;98163.81;5032970;28;20302;-76
2024/04/05 01:13:03;;;;;;;;;;;;;;;9.61;100.00;98162.19;5032937;28;19916;-76
2024/04/05 01:15:29;;;;;;;;;;;;;;;9.74;100.00;98174.53;5032925;28;19963;-76
2024/04/05 01:17:57;;;;;;;;;;;;;;;9.82;100.00;98163.47;5032823;28;19913;-75
2024/04/05 01:20:24;;;;;;;;;;;;;;;9.85;100.00;98163.78;5033132;28;20355;-75
2024/04/05 01:22:53;;;;;;;;;;;;;;;9.90;100.00;98152.38;5032820;28;19909;-75
2024/04/05 01:25:19;;;;;;;;;;;;;;;9.94;100.00;98160.75;5049385;28;20359;-76
2024/04/05 01:27:45;;;;;;;;;;;;;;;9.94;100.00;98155.38;5032959;28;20339;-75
2024/04/05 01:30:10;;;;;;;;;;;;;;;9.95;100.00;98157.00;5049396;28;19963;-75
2024/04/05 01:32:36;;;;;;;;;;;;;;;9.91;100.00;98149.44;5049354;28;19991;-75
2024/04/05 01:35:04;;;;;;;;;;;;;;;9.92;100.00;98160.97;5036477;28;19909;-75
2024/04/05 01:37:30;;;;;;;;;;;;;;;9.94;100.00;98147.31;5052574;28;19909;-75
2024/04/05 01:39:55;;;;;;;;;;;;;;;10.01;100.00;98148.84;5036716;28;19909;-75
2024/04/05 01:42:21;;;;;;;;;;;;;;;10.09;100.00;98150.34;5036214;28;20327;-76
2024/04/05 01:44:46;;;;;;;;;;;;;;;10.11;100.00;98159.81;5053731;28;19909;-75
2024/04/05 01:47:11;;;;;;;;;;;;;;;10.15;100.00;98148.56;5052743;28;20366;-75
2024/04/05 01:49:37;;;;;;;;;;;;;;;10.15;100.00;98151.25;5052551;28;19935;-75
2024/04/05 01:52:03;;;;;;;;;;;;;;;10.15;100.00;98156.63;5034806;28;20398;-75
2024/04/05 01:54:28;;;;;;;;;;;;;;;10.16;100.00;98147.50;5068980;28;19954;-75
2024/04/05 01:56:54;;;;;;;;;;;;;;;10.15;100.00;98146.72;5036349;28;20246;-75
2024/04/05 01:59:19;;;;;;;;;;;;;;;10.12;100.00;98134.56;5036199;28;19916;-75
2024/04/05 02:01:45;;;;;;;;;;;;;;;10.15;100.00;98145.91;5036456;28;19908;-75
2024/04/05 02:04:10;;;;;;;;;;;;;;;10.19;100.00;98147.88;5036110;28;20322;-75
2024/04/05 02:06:39;;;;;;;;;;;;;;;10.20;100.00;98132.56;5035761;28;19996;-75
2024/04/05 02:09:04;;;;;;;;;;;;;;;10.16;100.00;98120.66;5052186;28;19917;-75
2024/04/05 02:11:30;;;;;;;;;;;;;;;10.12;100.00;98115.78;5052312;28;20007;-75
2024/04/05 02:13:55;;;;;;;;;;;;;;;10.09;100.00;98110.88;5052348;28;19908;-75
2024/04/05 02:16:20;;;;;;;;;;;;;;;9.97;100.00;98104.72;5052474;28;19909;-76
2024/04/05 02:18:46;;;;;;;;;;;;;;;9.78;100.00;98093.31;5035827;28;19913;-75
2024/04/05 02:21:12;;;;;;;;;;;;;;;9.75;100.00;98095.66;5035547;28;19909;-75
2024/04/05 02:23:37;;;;;;;;;;;;;;;9.74;100.00;98089.50;5035813;28;19909;-75
2024/04/05 02:26:03;;;;;;;;;;;;;;;9.66;100.00;98092.53;5051790;28;20275;-75
2024/04/05 02:28:33;;;;;;;;;;;;;;;9.60;100.00;98088.09;5052544;28;19909;-75
2024/04/05 02:30:59;;;;;;;;;;;;;;;9.60;100.00;98093.47;5051226;28;19909;-75
2024/04/05 02:33:24;;;;;;;;;;;;;;;9.61;100.00;98076.31;5035566;28;20298;-75
2024/04/05 02:35:57;;;;;;;;;;;;;;;9.74;100.00;98080.59;5035542;28;19916;-76
2024/04/05 02:38:23;;;;;;;;;;;;;;;9.83;100.00;98079.19;5035455;28;19909;-75
2024/04/05 02:40:55;;;;;;;;;;;;;;;9.88;100.00;98080.13;5035224;28;19955;-75
2024/04/05 02:43:21;;;;;;;;;;;;;;;9.92;100.00;98064.34;5035942;28;19918;-75
2024/04/05 02:45:46;;;;;;;;;;;;;;;9.97;100.00;98075.19;5035135;28;20267;-75
2024/04/05 02:48:11;;;;;;;;;;;;;;;9.96;100.00;98065.50;5068000;28;19909;-75
2024/04/05 02:50:37;;;;;;;;;;;;;;;10.00;100.00;98068.53;5051226;28;19909;-75
2024/04/05 02:53:03;;;;;;;;;;;;;;;10.04;100.00;98067.81;5035187;28;20271;-75
2024/04/05 02:55:28;;;;;;;;;;;;;;;10.09;100.00;98062.56;5034926;28;19959;-75
2024/04/05 02:57:53;;;;;;;;;;;;;;;10.11;100.00;98052.41;5035091;28;19909;-76
2024/04/05 03:00:19;;;;;;;;;;;;;;;10.15;100.00;98068.03;5034969;28;20243;-75
2024/04/05 03:02:44;;;;;;;;;;;;;;;10.19;100.00;98066.47;5035052;28;20007;-75
2024/04/05 03:05:11;;;;;;;;;;;;;;;10.21;100.00;98057.13;5051576;28;20340;-76
2024/04/05 03:07:36;;;;;;;;;;;;;;;10.19;100.00;98061.09;5051317;28;19958;-75
2024/04/05 03:10:02;;;;;;;;;;;;;;;10.18;100.00;98062.19;5051291;28;19913;-75
2024/04/05 03:12:27;;;;;;;;;;;;;;;10.18;100.00;98051.44;5034830;28;19913;-76
2024/04/05 03:14:53;;;;;;;;;;;;;;;10.10;100.00;98034.63;5034504;28;19917;-76
2024/04/05 03:17:18;;;;;;;;;;;;;;;10.01;100.00;98030.72;5034924;28;19916;-76
2024/04/05 03:19:44;;;;;;;;;;;;;;;9.92;100.00;98034.81;5052169;28;19963;-75
2024/04/05 03:22:10;;;;;;;;;;;;;;;9.93;100.00;98039.16;5050918;28;20326;-76
2024/04/05 03:24:35;;;;;;;;;;;;;;;10.04;100.00;98040.16;5034592;28;19909;-76
2024/04/05 03:27:01;;;;;;;;;;;;;;;10.11;100.00;98040.84;5050985;28;19916;-76
2024/04/05 03:29:29;;;;;;;;;;;;;;;10.21;100.00;98032.16;5034528;28;19924;-76
2024/04/05 03:31:54;;;;;;;;;;;;;;;10.23;100.00;98030.06;5033976;28;20339;-76
2024/04/05 03:34:20;;;;;;;;;;;;;;;10.16;100.00;98032.06;5050344;28;19916;-75
2024/04/05 03:36:46;;;;;;;;;;;;;;;10.10;100.00;98025.78;5034251;28;19909;-75
2024/04/05 03:39:13;;;;;;;;;;;;;;;9.97;100.00;98008.06;5050630;28;20295;-76
2024/04/05 03:41:39;;;;;;;;;;;;;;;9.94;100.00;98019.28;5034765;28;19916;-76
2024/04/05 03:44:05;;;;;;;;;;;;;;;9.93;100.00;98020.38;5034131;28;20275;-76
2024/04/05 03:46:35;;;;;;;;;;;;;;;9.99;100.00;98015.91;5033925;28;19913;-76
2024/04/05 03:49:02;;;;;;;;;;;;;;;10.03;100.00;98009.81;5049949;28;19917;-75
2024/04/05 03:51:28;;;;;;;;;;;;;;;10.07;100.00;98010.16;5033929;28;19959;-75
2024/04/05 03:53:56;;;;;;;;;;;;;;;10.08;100.00;98012.59;5049947;28;19913;-76
2024/04/05 03:56:21;;;;;;;;;;;;;;;10.19;100.00;98010.09;5049835;28;20399;-76
2024/04/05 03:58:47;;;;;;;;;;;;;;;10.29;100.00;97994.19;5050489;28;20010;-75
2024/04/05 04:01:15;;;;;;;;;;;;;;;10.32;100.00;98001.78;5033693;28;20363;-76
2024/04/05 04:03:41;;;;;;;;;;;;;;;10.35;100.00;97987.88;5049664;28;19975;-75
2024/04/05 04:06:06;;;;;;;;;;;;;;;10.33;100.00;97987.31;5033869;28;20359;-76
2024/04/05 04:08:32;;;;;;;;;;;;;;;10.20;100.00;97979.50;5033702;28;20000;-76
2024/04/05 04:10:57;;;;;;;;;;;;;;;10.01;100.00;97985.09;5033609;28;19916;-76
2024/04/05 04:13:23;;;;;;;;;;;;;;;9.95;100.00;97986.06;5050627;28;19924;-76
2024/04/05 04:15:49;;;;;;;;;;;;;;;9.97;100.00;97985.78;5033585;28;20220;-76
2024/04/05 04:18:14;;;;;;;;;;;;;;;10.01;100.00;97984.28;5049978;28;19913;-76
2024/04/05 04:20:40;;;;;;;;;;;;;;;10.09;100.00;97976.66;5033621;28;19919;-75
2024/04/05 04:23:06;;;;;;;;;;;;;;;10.16;100.00;97973.81;5033755;28;20302;-76
2024/04/05 04:25:31;;;;;;;;;;;;;;;10.11;100.00;97979.91;5049942;28;19918;-76
2024/04/05 04:27:57;;;;;;;;;;;;;;;10.20;100.00;97982.19;5034208;28;19909;-75
2024/04/05 04:30:22;;;;;;;;;;;;;;;10.34;100.00;97980.84;5032944;28;20370;-76
2024/04/05 04:32:48;;;;;;;;;;;;;;;10.46;100.00;97980.81;5033382;28;19916;-75
2024/04/05 04:35:13;;;;;;;;;;;;;;;10.42;100.00;97975.09;5033280;28;20355;-75
2024/04/05 04:37:41;;;;;;;;;;;;;;;10.34;100.00;97975.50;5033248;28;19958;-76
2024/04/05 04:40:11;;;;;;;;;;;;;;;10.28;100.00;97977.28;5032861;28;19909;-76
2024/04/05 04:42:37;;;;;;;;;;;;;;;10.24;100.00;97976.13;5032311;28;19916;-75
2024/04/05 04:45:05;;;;;;;;;;;;;;;10.19;100.00;97957.22;5066174;28;19932;-76
2024/04/05 04:47:30;;;;;;;;;;;;;;;10.15;100.00;97966.81;5032783;28;19916;-75
2024/04/05 04:49:56;;;;;;;;;;;;;;;10.17;100.00;97967.38;5033012;28;19909;-75
2024/04/05 04:52:21;;;;;;;;;;;;;;;10.17;100.00;97962.00;5066493;28;19996;-76
2024/04/05 04:54:47;;;;;;;;;;;;;;;10.17;100.00;97955.84;5050109;28;19909;-76
2024/04/05 04:57:13;;;;;;;;;;;;;;;10.12;100.00;97951.19;5065906;28;19948;-76
2024/04/05 04:59:39;;;;;;;;;;;;;;;10.09;100.00;97963.22;5049423;28;19909;-76
2024/04/05 05:02:05;;;;;;;;;;;;;;;10.12;100.00;97956.56;5032698;28;19909;-76
2024/04/05 05:04:30;;;;;;;;;;;;;;;10.10;100.00;97958.66;5033018;28;20327;-76
2024/04/05 05:06:56;;;;;;;;;;;;;;;10.10;100.00;97958.66;5032959;28;19909;-76
2024/04/05 05:09:21;;;;;;;;;;;;;;;10.06;100.00;97963.72;5035744;28;20000;-76
2024/04/05 05:11:47;;;;;;;;;;;;;;;10.00;100.00;97963.84;5037014;28;20302;-76
2024/04/05 05:14:12;;;;;;;;;;;;;;;9.98;100.00;97969.47;5036956;28;19909;-76
2024/04/05 05:16:38;;;;;;;;;;;;;;;10.00;100.00;97963.84;5036950;28;20485;-76
2024/04/05 05:19:04;;;;;;;;;;;;;;;10.04;100.00;97975.75;5037022;28;19939;-77
2024/04/05 05:21:32;;;;;;;;;;;;;;;10.11;100.00;97965.66;5036251;28;19912;-76
2024/04/05 05:23:57;;;;;;;;;;;;;;;10.17;100.00;97971.94;5036566;28;20420;-76
2024/04/05 05:26:23;;;;;;;;;;;;;;;10.23;100.00;97974.47;5036692;28;19908;-76
2024/04/05 05:28:48;;;;;;;;;;;;;;;10.23;100.00;97960.22;5036703;28;20335;-76
2024/04/05 05:31:14;;;;;;;;;;;;;;;10.23;100.00;97960.22;5036814;28;19909;-75
2024/04/05 05:33:39;;;;;;;;;;;;;;;10.26;100.00;97962.44;5036610;28;19913;-75
2024/04/05 05:36:05;;;;;;;;;;;;;;;10.20;100.00;97966.09;5069648;28;19931;-75
2024/04/05 05:38:30;;;;;;;;;;;;;;;10.15;100.00;97969.50;5036528;28;19909;-76
2024/04/05 05:40:56;;;;;;;;;;;;;;;10.08;100.00;97977.72;5036349;28;19959;-76
2024/04/05 05:43:21;;;;;;;;;;;;;;;9.96;100.00;97974.25;5069187;28;19955;-76
2024/04/05 05:45:49;;;;;;;;;;;;;;;9.97;100.00;97986.59;5037224;28;20320;-75
2024/04/05 05:48:14;;;;;;;;;;;;;;;10.06;100.00;97984.38;5035973;28;19916;-76
2024/04/05 05:50:40;;;;;;;;;;;;;;;10.13;100.00;97977.81;5036308;28;20325;-76
2024/04/05 05:53:06;;;;;;;;;;;;;;;10.21;100.00;97990.00;5036267;28;19908;-75
2024/04/05 05:55:35;;;;;;;;;;;;;;;10.18;100.00;97981.63;5069057;28;19966;-76
2024/04/05 05:58:01;;;;;;;;;;;;;;;10.11;100.00;97977.22;5051763;28;20271;-76
2024/04/05 06:00:27;;;;;;;;;;;;;;;10.06;100.00;97974.44;5036000;28;20363;-75
2024/04/05 06:02:52;;;;;;;;;;;;;;;10.04;100.00;97975.75;5036060;28;19909;-76
2024/04/05 06:05:20;;;;;;;;;;;;;;;10.01;100.00;97981.59;5036049;28;19909;-76
2024/04/05 06:07:46;;;;;;;;;;;;;;;10.01;100.00;97982.41;5035180;28;19916;-75
2024/04/05 06:10:11;;;;;;;;;;;;;;;10.05;100.00;97980.03;5036392;28;19909;-75
2024/04/05 06:12:39;;;;;;;;;;;;;;;10.05;100.00;97988.09;5035760;28;20274;-75
2024/04/05 06:15:04;;;;;;;;;;;;;;;10.06;100.00;97987.88;5052476;28;19917;-75
2024/04/05 06:17:34;;;;;;;;;;;;;;;10.07;100.00;97986.81;5051870;28;20398;-75
2024/04/05 06:19:59;;;;;;;;;;;;;;;10.06;100.00;97992.44;5034479;28;19952;-75
2024/04/05 06:22:26;;;;;;;;;;;;;;;10.02;100.00;97986.69;5052664;28;19956;-76
2024/04/05 06:24:52;;;;;;;;;;;;;;;10.00;100.00;97985.31;5035591;28;19909;-76
2024/04/05 06:27:21;;;;;;;;;;;;;;;10.00;100.00;97983.47;5051764;28;20248;-76
2024/04/05 06:29:48;;;;;;;;;;;;;;;10.00;100.00;97983.47;5051867;28;19916;-76
2024/04/05 06:32:13;;;;;;;;;;;;;;;10.02;100.00;97992.06;5067977;28;20036;-76
2024/04/05 06:34:42;;;;;;;;;;;;;;;10.06;100.00;97982.50;5051863;28;19959;-75
2024/04/05 06:37:08;;;;;;;;;;;;;;;10.08;100.00;97988.44;5035501;28;19995;-75
2024/04/05 06:39:33;;;;;;;;;;;;;;;9.97;100.00;97993.84;5053899;28;19978;-76
2024/04/05 06:41:59;;;;;;;;;;;;;;;9.80;100.00;97991.94;5035405;28;19935;-75
2024/04/05 06:44:26;;;;;;;;;;;;;;;9.83;100.00;97998.69;5051831;28;19909;-75
2024/04/05 06:46:52;;;;;;;;;;;;;;;10.02;100.00;97986.69;5035085;28;19909;-75
2024/04/05 06:49:17;;;;;;;;;;;;;;;10.22;100.00;97988.97;5035128;28;20004;-75
2024/04/05 06:51:43;;;;;;;;;;;;;;;10.41;100.00;97988.78;5035096;28;19909;-75
2024/04/05 06:54:08;;;;;;;;;;;;;;;10.44;100.00;97980.22;5035659;28;19931;-75
2024/04/05 06:56:34;;;;;;;;;;;;;;;10.64;100.00;97987.78;5067937;28;19932;-75
2024/04/05 06:58:59;;;;;;;;;;;;;;;10.80;100.00;97987.00;5035017;28;19916;-75
2024/04/05 07:01:24;;;;;;;;;;;;;;;10.54;100.00;97986.59;5051325;28;19917;-75
2024/04/05 07:03:50;;;;;;;;;;;;;;;10.30;100.00;97987.78;5067834;28;20297;-75
2024/04/05 07:06:16;;;;;;;;;;;;;;;10.22;100.00;97988.97;5034732;28;19909;-75
2024/04/05 07:08:41;;;;;;;;;;;;;;;10.29;100.00;97988.81;5034781;28;19908;-75
2024/04/05 07:11:09;;;;;;;;;;;;;;;10.33;100.00;97995.34;5034444;28;19909;-76
2024/04/05 07:13:35;;;;;;;;;;;;;;;10.36;100.00;98002.94;5034472;28;19916;-76
2024/04/05 07:16:01;;;;;;;;;;;;;;;10.44;100.00;98007.91;5034626;28;19963;-75
2024/04/05 07:18:26;;;;;;;;;;;;;;;10.53;100.00;98006.47;5034702;28;19913;-76
2024/04/05 07:20:54;;;;;;;;;;;;;;;10.63;100.00;98003.09;5034159;28;19955;-76
2024/04/05 07:23:20;;;;;;;;;;;;;;;10.78;100.00;98002.56;5034722;28;19912;-76
2024/04/05 07:25:45;;;;;;;;;;;;;;;10.86;100.00;97996.75;5050970;28;20255;-76
2024/04/05 07:28:11;;;;;;;;;;;;;;;10.88;100.00;97996.53;5034499;28;19940;-76
2024/04/05 07:30:37;;;;;;;;;;;;;;;10.96;100.00;97994.25;5033222;28;19909;-76
2024/04/05 07:33:02;;;;;;;;;;;;;;;11.66;100.00;97975.78;5034226;28;19994;-76
2024/04/05 07:35:29;;;;;;;;;;;;;;;12.87;100.00;97998.84;5034338;28;19938;-76
2024/04/05 07:37:55;;;;;;;;;;;;;;;13.54;100.00;98001.97;5051024;28;20243;-76
2024/04/05 07:40:21;;;;;;;;;;;;;;;14.30;100.00;98007.66;5034156;28;19909;-76
2024/04/05 07:42:53;;;;;;;;;;;;;;;14.81;100.00;98011.53;5034821;28;20259;-76
2024/04/05 07:45:20;;;;;;;;;;;;;;;13.57;100.00;98015.75;5050347;28;19915;-76
2024/04/05 07:47:48;;;;;;;;;;;;;;;12.88;100.00;98016.63;5034088;28;19992;-76
2024/04/05 07:50:20;;;;;;;;;;;;;;;12.54;100.00;98016.06;5033830;28;19913;-76
2024/04/05 07:52:46;;;;;;;;;;;;;;;12.09;100.00;98022.63;5034078;28;19917;-76
2024/04/05 07:55:13;;;;;;;;;;;;;;;11.88;100.00;98021.56;5050316;28;19912;-76
2024/04/05 07:57:43;;;;;;;;;;;;;;;11.87;100.00;98015.38;5066343;28;19959;-76
2024/04/05 08:00:14;;;;;;;;;;;;;;;11.90;100.00;98015.94;5066448;28;19909;-76
2024/04/05 08:02:40;;;;;;;;;;;;;;;11.83;100.00;98016.94;5032748;28;19956;-75
2024/04/05 08:05:06;;;;;;;;;;;;;;;11.92;100.00;98016.53;5050515;28;19913;-75
2024/04/05 08:07:31;;;;;;;;;;;;;;;12.10;100.00;98018.88;5033760;28;19962;-74
2024/04/05 08:09:57;;;;;;;;;;;;;;;11.93;100.00;98023.53;5033646;28;20304;-75
2024/04/05 08:12:23;;;;;;;;;;;;;;;11.86;100.00;98024.53;5049999;28;19909;-76
2024/04/05 08:14:49;;;;;;;;;;;;;;;12.01;100.00;98031.16;5033732;28;19913;-76
2024/04/05 08:17:15;;;;;;;;;;;;;;;11.96;100.00;98031.09;5049607;28;19927;-76
2024/04/05 08:19:42;;;;;;;;;;;;;;;11.88;100.00;98025.09;5049879;28;19909;-76
2024/04/05 08:22:08;;;;;;;;;;;;;;;11.98;100.00;98026.28;5049547;28;19963;-76
2024/04/05 08:24:34;;;;;;;;;;;;;;;12.06;100.00;98009.66;5033277;28;19917;-76
2024/04/05 08:26:59;;;;;;;;;;;;;;;12.27;100.00;98010.69;5049762;28;19909;-76
2024/04/05 08:29:27;;;;;;;;;;;;;;;12.33;100.00;98017.75;5050042;28;19916;-76
2024/04/05 08:31:53;;;;;;;;;;;;;;;12.60;100.00;98020.47;5033117;28;19909;-76
2024/04/05 08:34:20;;;;;;;;;;;;;;;13.18;100.00;98021.44;5049721;28;20410;-76
2024/04/05 08:36:48;;;;;;;;;;;;;;;13.42;100.00;98010.31;5049888;28;19947;-76
2024/04/05 08:39:18;;;;;;;;;;;;;;;13.55;100.00;98014.41;5032984;28;19955;-76
2024/04/05 08:41:45;;;;;;;;;;;;;;;13.37;100.00;98023.75;5065849;28;19909;-76
2024/04/05 08:44:12;;;;;;;;;;;;;;;12.99;100.00;98031.00;5049849;28;19932;-76
2024/04/05 08:46:38;;;;;;;;;;;;;;;12.71;100.00;98030.25;5033132;28;20004;-74
2024/04/05 08:49:05;;;;;;;;;;;;;;;12.65;100.00;98041.25;5049116;28;19971;-75
2024/04/05 08:51:30;;;;;;;;;;;;;;;12.60;100.00;98039.34;5032675;28;20004;-74
2024/04/05 08:53:56;;;;;;;;;;;;;;;12.40;100.00;98045.31;5049260;28;20335;-76
2024/04/05 08:56:21;;;;;;;;;;;;;;;12.26;100.00;98033.34;5033013;28;19948;-74
2024/04/05 08:58:48;;;;;;;;;;;;;;;12.40;100.00;98049.91;5032847;28;19920;-75
2024/04/05 09:01:14;;;;;;;;;;;;;;;12.37;100.00;98043.13;5049123;28;19948;-75
2024/04/05 09:03:40;;;;;;;;;;;;;;;12.38;100.00;98049.34;5033011;28;20343;-75
2024/04/05 09:06:06;;;;;;;;;;;;;;;12.39;100.00;98059.88;5032975;28;19909;-75
2024/04/05 09:08:32;;;;;;;;;;;;;;;12.39;100.00;98059.06;5033004;28;19909;-76
2024/04/05 09:10:58;;;;;;;;;;;;;;;12.64;100.00;98055.78;5049290;28;19956;-75
2024/04/05 09:13:24;;;;;;;;;;;;;;;12.80;100.00;98068.34;5065918;28;19913;-75
2024/04/05 09:15:52;;;;;;;;;;;;;;;12.75;100.00;98066.44;5032757;28;19913;-75
2024/04/05 09:18:28;;;;;;;;;;;;;;;12.76;100.00;98068.06;5049302;28;19909;-75
2024/04/05 09:20:55;;;;;;;;;;;;;;;12.64;100.00;98070.09;5048913;28;20306;-74
2024/04/05 09:23:21;;;;;;;;;;;;;;;12.49;100.00;98065.38;5032685;28;19916;-75
2024/04/05 09:25:58;;;;;;;;;;;;;;;12.19;100.00;98071.22;5049960;28;19913;-75
2024/04/05 09:28:24;;;;;;;;;;;;;;;12.07;100.00;98073.25;5036143;28;19916;-74
2024/04/05 09:30:54;;;;;;;;;;;;;;;12.40;100.00;98071.47;5033241;28;19959;-76
2024/04/05 09:33:20;;;;;;;;;;;;;;;12.73;100.00;98070.47;5033038;28;19924;-76
2024/04/05 09:35:47;;;;;;;;;;;;;;;12.73;100.00;98078.53;5032480;28;20397;-74
2024/04/05 09:38:13;;;;;;;;;;;;;;;12.67;100.00;98074.97;5032635;28;19944;-74
2024/04/05 09:40:39;;;;;;;;;;;;;;;12.60;100.00;98076.25;5032504;28;19916;-74
2024/04/05 09:43:05;;;;;;;;;;;;;;;12.69;100.00;98083.63;5032753;28;19979;-76
2024/04/05 09:45:31;;;;;;;;;;;;;;;12.96;100.00;98086.28;5032562;28;20340;-74
2024/04/05 09:47:57;;;;;;;;;;;;;;;13.19;100.00;98084.31;5048954;28;19916;-75
2024/04/05 09:50:23;;;;;;;;;;;;;;;13.32;100.00;98088.50;5048679;28;19909;-76
2024/04/05 09:52:52;;;;;;;;;;;;;;;12.86;100.00;98088.06;5048640;28;19908;-76
2024/04/05 09:55:19;;;;;;;;;;;;;;;12.53;100.00;98088.03;5050808;28;20004;-76
2024/04/05 09:57:47;;;;;;;;;;;;;;;12.52;100.00;98085.63;5036024;28;20275;-76
2024/04/05 10:00:16;;;;;;;;;;;;;;;12.51;100.00;98100.94;5036096;28;19952;-75
2024/04/05 10:02:49;;;;;;;;;;;;;;;12.32;100.00;98107.75;5035428;28;20359;-75
2024/04/05 10:05:28;;;;;;;;;;;;;;;12.00;100.00;98099.56;5052571;28;19913;-76
2024/04/05 10:07:54;;;;;;;;;;;;;;;11.93;100.00;98107.81;5051744;28;19962;-76
2024/04/05 10:10:29;;;;;;;;;;;;;;;12.17;100.00;98107.56;5068265;28;19912;-75
2024/04/05 10:12:55;;;;;;;;;;;;;;;12.45;100.00;98098.47;5036064;28;19980;-84
2024/04/05 10:15:25;;;;;;;;;;;;;;;12.82;100.00;98111.25;5036123;28;20351;-87
2024/04/05 10:17:55;;;;;;;;;;;;;;;13.02;100.00;98111.44;5052074;28;19917;-87
2024/04/05 10:20:21;;;;;;;;;;;;;;;13.33;100.00;98111.69;5052559;28;20004;-89
2024/04/05 10:22:56;;;;;;;;;;;;;;;13.67;100.00;98114.09;5052122;28;20025;-86
2024/04/05 10:25:21;;;;;;;;;;;;;;;13.81;100.00;98117.97;5069806;28;19909;-87
2024/04/05 10:27:51;;;;;;;;;;;;;;;13.59;100.00;98116.22;5037870;28;19919;-87
2024/04/05 10:30:17;;;;;;;;;;;;;;;13.16;100.00;98128.81;5038660;28;19923;-88
2024/04/05 10:32:42;;;;;;;;;;;;;;;12.70;100.00;98130.25;5068917;28;19996;-85
2024/04/05 10:35:08;;;;;;;;;;;;;;;12.25;100.00;98137.59;5069209;28;19909;-88
2024/04/05 10:37:35;;;;;;;;;;;;;;;12.32;100.00;98140.09;5036813;28;20363;-87
2024/04/05 10:40:03;;;;;;;;;;;;;;;12.82;100.00;98138.22;5035788;28;19984;-88
2024/04/05 10:42:29;;;;;;;;;;;;;;;13.15;100.00;98132.59;5051760;28;20240;-87
2024/04/05 10:44:55;;;;;;;;;;;;;;;13.63;100.00;98138.94;5052064;28;19919;-85
2024/04/05 10:47:21;;;;;;;;;;;;;;;14.06;100.00;98136.22;5036816;28;19917;-87
2024/04/05 10:49:56;;;;;;;;;;;;;;;14.27;100.00;98137.13;5035122;28;19969;-87
2024/04/05 10:52:22;;;;;;;;;;;;;;;14.31;100.00;98157.13;5052787;28;19909;-88
2024/04/05 10:54:47;;;;;;;;;;;;;;;13.99;100.00;98159.94;5068474;28;20382;-87
2024/04/05 10:57:13;;;;;;;;;;;;;;;13.69;100.00;98160.56;5036871;28;19913;-87
2024/04/05 10:59:38;;;;;;;;;;;;;;;13.49;100.00;98167.41;5052028;28;19909;-86
2024/04/05 11:02:03;;;;;;;;;;;;;;;13.27;100.00;98172.91;5068478;28;19912;-87
2024/04/05 11:04:29;;;;;;;;;;;;;;;13.07;100.00;98172.69;5068275;28;19909;-87
2024/04/05 11:07:01;;;;;;;;;;;;;;;12.83;100.00;98182.97;5035154;28;20263;-86
2024/04/05 11:09:33;;;;;;;;;;;;;;;12.67;100.00;98185.50;5068216;28;19916;-87
2024/04/05 11:11:59;;;;;;;;;;;;;;;12.85;100.00;98181.66;5036299;28;19954;-86
2024/04/05 11:14:25;;;;;;;;;;;;;;;13.08;100.00;98191.34;5067895;28;20248;-89
2024/04/05 11:16:57;;;;;;;;;;;;;;;13.14;100.00;98184.91;5036464;28;19955;-88
2024/04/05 11:19:25;;;;;;;;;;;;;;;12.98;100.00;98194.72;5051602;28;19913;-87
2024/04/05 11:21:52;;;;;;;;;;;;;;;12.95;100.00;98197.13;5051418;28;19909;-85
2024/04/05 11:24:18;;;;;;;;;;;;;;;12.85;100.00;98211.31;5068786;28;19909;-85
2024/04/05 11:26:48;;;;;;;;;;;;;;;12.97;100.00;98209.31;5055796;28;19909;-86
2024/04/05 11:29:14;;;;;;;;;;;;;;;13.44;100.00;98215.97;5045799;28;19967;-86
2024/04/05 11:33:05;;;;;;;;;;;;;;;14.35;100.00;98217.69;5144554;27;19915;-86
2024/04/05 11:35:30;;;;;;;;;;;;;;;14.49;100.00;98215.31;5099043;28;19920;-86
2024/04/05 11:37:56;;;;;;;;;;;;;;;14.86;100.00;98225.25;5115332;28;20407;-85
2024/04/05 11:40:21;;;;;;;;;;;;;;;14.90;100.00;98226.34;5114383;28;19944;-85
2024/04/05 11:47:07;;;;;;;234.20;103.00;;;;;;;16.21;100.00;98207.72;5108976;27;20406;-86
2024/04/05 11:49:33;;;;;;;870.17;421.60;;;;;;;16.62;100.00;98206.78;5071515;28;20394;-87
2024/04/05 11:51:59;;;;;;;819.20;374.10;;;;;;;16.37;100.00;98213.09;5089868;28;20378;-86
2024/04/05 11:54:25;;;;;;;;;;;;;;;15.53;100.00;98224.31;5090197;28;20016;-87
2024/04/05 11:56:50;;;;;;;;;;;;;;;14.67;100.00;98214.09;5073479;28;19977;-86
2024/04/05 11:59:16;;;;;;;;;;;;;;;14.24;100.00;98232.25;5074100;28;19919;-86
2024/04/05 12:01:41;;;;;;;;;;;;;;;14.01;100.00;98209.94;5097333;28;19907;-86
2024/04/05 12:04:07;;;;;;;;;;;;;;;13.88;100.00;98231.19;5115449;28;19998;-87
2024/04/05 12:06:34;;;;;;;;;;;;;;;13.75;100.00;98245.94;5089076;28;19926;-82
2024/04/05 12:09:03;;;;;;;;;;;;;;;13.80;100.00;98245.97;5089099;28;20014;-82
2024/04/05 12:11:30;;;;;;;;;;;;;;;13.81;100.00;98258.41;5073935;28;20003;-83
2024/04/05 12:13:55;;;;;;;;;;;;;;;13.97;100.00;98241.25;5073445;28;19920;-83
2024/04/05 12:16:21;;;;;;;;;;;;;;;14.49;100.00;98253.19;5073304;28;19927;-82
2024/04/05 12:18:46;;;;;;;;;;;;;;;14.69;100.00;98247.91;5089587;28;19977;-83
2024/04/05 12:21:12;;;;;;;;;;;;;;;14.44;100.00;98250.44;5072837;28;19917;-85
2024/04/05 12:23:37;;;;;;;;;;;;;;;14.07;100.00;98265.63;5071234;28;20281;-83
2024/04/05 12:26:03;;;;;;;;;;;;;;;13.77;100.00;98268.91;5092615;28;19920;-86
2024/04/05 12:28:28;;;;;;;;;;;;;;;13.25;100.00;98276.75;5092265;28;20286;-86
2024/04/05 12:30:54;;;;;;;;;;;;;;;12.86;100.00;98274.16;5091091;28;20317;-86
2024/04/05 12:33:19;;;;;;;;;;;;;;;12.67;100.00;98285.25;5090244;28;19966;-87
2024/04/05 12:36:00;;;;;;;;;;;;;;;12.66;100.00;98283.63;5089856;28;19919;-86
2024/04/05 12:38:28;;;;;;;;;;;;;;;12.88;100.00;98272.84;5090914;28;19916;-87
2024/04/05 12:40:57;;;;;;;;;;;;;;;13.42;100.00;98282.91;5107501;28;19927;-86